createdAt,value
2022-10-08T00:01:27.388Z,85.10
2022-10-08T00:06:22.487Z,85.90
2022-10-08T00:11:18.372Z,85.61
2022-10-08T00:16:15.392Z,85.31
2022-10-08T00:21:14.571Z,84.78
2022-10-08T00:26:08.009Z,84.33
2022-10-08T00:31:07.616Z,84.78
2022-10-08T00:36:02.399Z,84.82
2022-10-08T00:40:57.200Z,85.77
2022-10-08T00:45:50.522Z,86.45
2022-10-08T00:50:43.968Z,86.48
2022-10-08T00:55:43.327Z,85.48
2022-10-08T01:00:38.699Z,84.98
2022-10-08T01:05:45.564Z,86.61
2022-10-08T01:10:50.134Z,87.77
2022-10-08T01:15:52.156Z,86.64
2022-10-08T01:20:52.882Z,85.75
2022-10-08T01:25:53.947Z,86.31
2022-10-08T01:30:52.293Z,86.92
2022-10-08T01:35:54.247Z,86.79
2022-10-08T01:40:49.659Z,86.61
2022-10-08T01:45:46.924Z,86.39
2022-10-08T01:50:53.701Z,85.41
2022-10-08T01:55:50.442Z,85.43
2022-10-08T02:00:43.896Z,86.37
2022-10-08T02:05:41.208Z,87.86
2022-10-08T02:10:35.893Z,88.65
2022-10-08T02:15:38.597Z,88.02
2022-10-08T02:20:36.422Z,88.94
2022-10-08T02:25:34.825Z,90.45
2022-10-08T02:30:35.608Z,90.85
2022-10-08T02:35:34.853Z,88.53
2022-10-08T02:40:31.736Z,86.04
2022-10-08T02:45:29.040Z,84.99
2022-10-08T02:50:27.650Z,84.69
2022-10-08T02:55:29.151Z,85.36
2022-10-08T03:00:22.673Z,85.75
2022-10-08T03:05:20.510Z,85.62
2022-10-08T03:10:15.935Z,84.63
2022-10-08T03:15:11.775Z,85.02
2022-10-08T03:20:09.564Z,86.86
2022-10-08T03:25:02.829Z,87.25
2022-10-08T03:29:58.098Z,88.31
2022-10-08T03:34:51.381Z,89.14
2022-10-08T03:39:44.639Z,88.98
2022-10-08T03:44:37.777Z,88.93
2022-10-08T03:49:32.386Z,89.15
2022-10-08T03:54:26.122Z,88.31
2022-10-08T03:59:19.424Z,87.79
2022-10-08T04:04:12.642Z,87.72
2022-10-08T04:09:07.395Z,87.90
2022-10-08T04:14:01.772Z,87.64
2022-10-08T04:18:55.031Z,88.36
2022-10-08T04:23:50.870Z,88.06
2022-10-08T04:28:46.302Z,88.65
2022-10-08T04:33:40.071Z,88.73
2022-10-08T04:38:33.526Z,88.34
2022-10-08T04:43:26.758Z,88.48
2022-10-08T04:48:21.453Z,88.54
2022-10-08T04:53:14.724Z,88.67
2022-10-08T04:58:07.849Z,88.05
2022-10-08T05:03:01.163Z,87.45
2022-10-08T05:07:56.959Z,87.92
2022-10-08T05:12:50.289Z,88.05
2022-10-08T05:17:46.218Z,87.45
2022-10-08T05:22:41.886Z,87.75
2022-10-08T05:27:37.089Z,88.85
2022-10-08T05:32:30.449Z,89.36
2022-10-08T05:37:23.970Z,89.71
2022-10-08T05:42:17.237Z,90.44
2022-10-08T05:47:11.906Z,90.29
2022-10-08T05:52:05.398Z,90.07
2022-10-08T05:56:59.034Z,90.06
2022-10-08T06:01:52.968Z,89.89
2022-10-08T06:06:48.332Z,90.33
2022-10-08T06:11:42.616Z,89.34
2022-10-08T06:16:36.560Z,88.78
2022-10-08T06:21:31.320Z,88.48
2022-10-08T06:26:32.918Z,88.45
2022-10-08T06:31:33.983Z,88.47
2022-10-08T06:36:29.517Z,88.48
2022-10-08T06:41:25.714Z,88.67
2022-10-08T06:46:20.065Z,88.05
2022-10-08T06:51:15.800Z,87.42
2022-10-08T06:56:14.596Z,86.35
2022-10-08T07:01:11.438Z,85.33
2022-10-08T07:06:07.734Z,84.66
2022-10-08T07:11:06.158Z,83.31
2022-10-08T07:16:03.495Z,83.72
2022-10-08T07:21:01.322Z,83.64
2022-10-08T07:25:59.477Z,82.53
2022-10-08T07:30:52.585Z,82.13
2022-10-08T07:35:45.693Z,81.74
2022-10-08T07:40:40.260Z,81.39
2022-10-08T07:45:33.498Z,80.10
2022-10-08T07:50:26.777Z,79.15
2022-10-08T07:55:22.515Z,79.34
2022-10-08T08:00:17.423Z,77.82
2022-10-08T08:05:10.983Z,77.96
2022-10-08T08:10:04.851Z,76.26
2022-10-08T08:14:57.953Z,76.25
2022-10-08T08:19:52.489Z,75.03
2022-10-08T08:24:47.387Z,73.71
2022-10-08T08:29:41.577Z,73.09
2022-10-08T08:34:35.042Z,72.93
2022-10-08T08:39:31.876Z,71.56
2022-10-08T08:44:26.812Z,69.22
2022-10-08T08:49:29.319Z,65.60
2022-10-08T08:54:23.377Z,63.84
2022-10-08T08:59:27.466Z,60.73
2022-10-08T09:04:25.874Z,59.33
2022-10-08T09:09:29.945Z,58.45
2022-10-08T09:14:38.156Z,56.72
2022-10-08T09:19:32.439Z,56.09
2022-10-08T09:24:26.058Z,54.32
2022-10-08T09:29:34.679Z,52.18
2022-10-08T09:34:30.514Z,51.69
2022-10-08T09:39:26.099Z,51.42
2022-10-08T09:44:21.978Z,51.67
2022-10-08T09:49:39.919Z,51.59
2022-10-08T09:54:37.910Z,51.75
2022-10-08T09:59:37.699Z,51.43
2022-10-08T10:04:35.727Z,50.93
2022-10-08T10:09:41.714Z,51.60
2022-10-08T10:14:43.886Z,50.32
2022-10-08T10:19:43.458Z,49.89
2022-10-08T10:24:54.630Z,51.87
2022-10-08T10:29:58.823Z,52.32
2022-10-08T10:35:04.785Z,52.35
2022-10-08T10:40:15.177Z,52.19
2022-10-08T10:45:19.689Z,51.88
2022-10-08T10:50:17.679Z,52.29
2022-10-08T10:55:22.057Z,50.14
2022-10-08T11:00:21.637Z,50.31
2022-10-08T11:05:21.888Z,49.54
2022-10-08T11:10:33.331Z,48.90
2022-10-08T11:15:34.939Z,48.49
2022-10-08T11:20:41.602Z,48.32
2022-10-08T11:26:09.898Z,47.45
2022-10-08T11:31:05.083Z,48.31
2022-10-08T11:36:13.293Z,47.53
2022-10-08T11:41:16.258Z,46.64
2022-10-08T11:46:28.748Z,47.56
2022-10-08T11:51:40.109Z,47.02
2022-10-08T11:56:37.002Z,46.93
2022-10-08T12:01:30.325Z,46.97
2022-10-08T12:06:27.466Z,46.81
2022-10-08T12:12:00.085Z,47.85
2022-10-08T12:17:18.616Z,48.68
2022-10-08T12:22:50.567Z,49.07
2022-10-08T12:27:43.980Z,48.71
2022-10-08T12:32:57.624Z,47.17
2022-10-08T12:38:13.678Z,46.57
2022-10-08T12:43:18.659Z,46.74
2022-10-08T12:48:19.643Z,46.38
2022-10-08T12:53:16.892Z,44.67
2022-10-08T12:58:17.964Z,42.11
2022-10-08T13:03:18.303Z,41.88
2022-10-08T13:08:37.197Z,42.61
2022-10-08T13:13:45.053Z,43.65
2022-10-08T13:18:42.207Z,43.82
2022-10-08T13:23:37.801Z,44.27
2022-10-08T13:28:59.187Z,44.20
2022-10-08T13:33:45.504Z,44.37
2022-10-08T13:38:38.658Z,44.86
2022-10-08T13:43:32.545Z,44.77
2022-10-08T13:48:26.565Z,45.05
2022-10-08T13:53:24.086Z,44.70
2022-10-08T13:58:20.336Z,45.05
2022-10-08T14:03:14.549Z,44.06
2022-10-08T14:08:14.173Z,43.48
2022-10-08T14:13:08.479Z,43.47
2022-10-08T14:18:01.662Z,43.35
2022-10-08T14:22:54.899Z,43.62
2022-10-08T14:27:48.264Z,45.52
2022-10-08T14:32:43.233Z,44.69
2022-10-08T14:37:36.810Z,46.30
2022-10-08T14:42:29.901Z,47.75
2022-10-08T14:47:23.154Z,48.40
2022-10-08T14:52:44.375Z,48.85
2022-10-08T14:58:24.723Z,51.12
2022-10-08T15:03:21.427Z,52.05
2022-10-08T15:08:38.416Z,52.12
2022-10-08T15:13:38.137Z,52.84
2022-10-08T15:18:32.802Z,53.32
2022-10-08T15:23:31.911Z,54.74
2022-10-08T15:28:26.824Z,55.73
2022-10-08T16:01:30.549Z,60.20
2022-10-08T16:07:56.698Z,59.99
2022-10-08T16:23:59.749Z,59.96
2022-10-08T16:35:41.031Z,62.11
2022-10-08T16:40:34.327Z,61.36
2022-10-08T17:00:14.375Z,66.66
2022-10-08T17:05:56.967Z,67.21
2022-10-08T17:26:04.601Z,69.43
2022-10-08T17:32:20.881Z,69.70
2022-10-08T17:38:10.034Z,70.38
2022-10-08T17:43:40.252Z,70.63
2022-10-08T17:48:35.231Z,70.79
2022-10-08T17:53:36.371Z,71.26
2022-10-08T17:58:30.280Z,71.80
2022-10-08T18:03:26.499Z,72.15
2022-10-08T18:08:22.804Z,72.50
2022-10-08T18:13:19.725Z,73.03
2022-10-08T18:23:29.745Z,74.84
2022-10-08T18:28:26.175Z,74.92
2022-10-08T18:33:25.015Z,74.95
2022-10-08T18:38:19.621Z,73.63
2022-10-08T18:43:17.359Z,73.88
2022-10-08T18:48:42.233Z,74.29
2022-10-08T18:54:13.977Z,75.39
2022-10-08T18:59:11.958Z,76.15
2022-10-08T19:04:10.871Z,76.55
2022-10-08T19:09:05.674Z,77.10
2022-10-08T19:13:59.060Z,77.41
2022-10-08T19:18:59.480Z,77.97
2022-10-08T19:23:53.370Z,78.34
2022-10-08T19:28:48.586Z,78.52
2022-10-08T19:33:44.574Z,79.56
2022-10-08T19:38:44.201Z,78.93
2022-10-08T19:43:37.512Z,78.86
2022-10-08T19:48:30.887Z,78.81
2022-10-08T19:53:24.268Z,79.43
2022-10-08T19:58:21.312Z,79.15
2022-10-08T20:03:14.785Z,79.61
2022-10-08T20:08:08.180Z,80.24
2022-10-08T20:13:03.536Z,80.48
2022-10-08T20:18:00.035Z,79.30
2022-10-08T20:22:53.326Z,80.01
2022-10-08T20:27:49.573Z,80.15
2022-10-08T20:32:45.450Z,79.82
2022-10-08T20:37:40.500Z,79.99
2022-10-08T20:42:34.027Z,79.91
2022-10-08T20:47:29.942Z,79.76
2022-10-08T20:52:25.707Z,79.64
2022-10-08T20:57:23.470Z,80.14
2022-10-08T21:02:19.780Z,80.20
2022-10-08T21:07:13.290Z,80.56
2022-10-08T21:12:09.409Z,80.53
2022-10-08T21:17:04.033Z,80.65
2022-10-08T21:21:57.584Z,80.55
2022-10-08T21:26:50.854Z,80.91
2022-10-08T21:31:44.487Z,80.79
2022-10-08T21:36:43.045Z,81.18
2022-10-08T21:41:37.914Z,80.30
2022-10-08T21:46:33.027Z,80.62
2022-10-08T21:51:26.769Z,81.16
2022-10-08T21:56:23.925Z,81.29
2022-10-08T22:01:22.893Z,81.81
2022-10-08T22:06:16.409Z,81.95
2022-10-08T22:11:09.597Z,81.83
2022-10-08T22:16:05.789Z,82.09
2022-10-08T22:21:02.390Z,83.03
2022-10-08T22:25:57.206Z,83.07
2022-10-08T22:30:50.837Z,83.35
2022-10-08T22:35:45.776Z,83.21
2022-10-08T22:40:40.183Z,83.60
2022-10-08T22:45:36.935Z,83.71
2022-10-08T22:50:30.173Z,83.37
2022-10-08T22:55:24.826Z,83.92
2022-10-08T23:00:18.170Z,83.84
2022-10-08T23:05:11.348Z,83.81
2022-10-08T23:10:04.808Z,84.12
2022-10-08T23:14:59.799Z,84.43
2022-10-08T23:19:53.182Z,83.76
2022-10-08T23:24:46.442Z,83.93
2022-10-08T23:29:39.730Z,84.25
2022-10-08T23:34:34.263Z,84.77
2022-10-08T23:39:27.501Z,84.48
2022-10-08T23:44:20.778Z,84.51
2022-10-08T23:49:13.883Z,84.56
2022-10-08T23:54:08.594Z,84.76
2022-10-08T23:59:01.945Z,84.40
